Newport Beach, California
Current Conditions -  °F | °C
As of 7:53 AM on Wednesday 22 Oct 2014 (Local Time) from KSNA Reporting Station
Broken Clouds Broken Clouds  
Wind Chill: 65°   Ceiling: 700
Heat Index: 65°   Visibility: 9mi
Dew Point: 56°   Wind: 3mph
Humidity: 73%   Direction: 50°NE
Pressure: 29.93"   Gusts: NA
Location:  33.62°N, 117.93°W
Report Text: KSNA 221453Z 05003KT 9SM BKN007 18/13 A2993 RMK AO2 SLP133 T01830133 53016
Loading
Personal Weather Stations






























Interactive Weather Map
Tropical Storm Tracking
New forecast layout! Learn more

10-Day Weather Forecast

Advertisements
Track Severe Weather on mobile